createdAt,value
2022-07-28T04:01:30.297Z,5.07
2022-07-28T04:03:58.372Z,5.03
2022-07-28T04:06:26.501Z,4.97
2022-07-28T04:08:54.564Z,5.03
2022-07-28T04:11:23.174Z,5.10
2022-07-28T04:13:51.280Z,5.10
2022-07-28T04:16:19.446Z,5.00
2022-07-28T04:18:51.823Z,5.07
2022-07-28T04:21:19.912Z,5.07
2022-07-28T04:23:47.976Z,5.10
2022-07-28T04:26:17.215Z,5.10
2022-07-28T04:28:45.735Z,5.10
2022-07-28T04:31:14.259Z,5.10
2022-07-28T04:33:43.188Z,5.10
2022-07-28T04:36:12.665Z,5.10
2022-07-28T04:38:40.875Z,5.10
2022-07-28T04:41:08.956Z,5.10
2022-07-28T04:43:38.602Z,5.10
2022-07-28T04:46:06.996Z,5.10
2022-07-28T04:48:35.177Z,5.10
2022-07-28T04:51:03.292Z,5.20
2022-07-28T04:53:32.709Z,5.20
2022-07-28T04:56:00.872Z,5.10
2022-07-28T04:58:30.987Z,5.17
2022-07-28T05:00:59.263Z,5.20
2022-07-28T05:03:28.757Z,5.17
2022-07-28T05:05:59.824Z,5.20
2022-07-28T05:08:27.904Z,5.20
2022-07-28T05:10:57.837Z,5.27
2022-07-28T05:13:31.806Z,5.20
2022-07-28T05:16:02.404Z,5.23
2022-07-28T05:18:30.643Z,5.30
2022-07-28T05:20:58.869Z,5.30
2022-07-28T05:23:26.988Z,5.27
2022-07-28T05:25:55.119Z,5.20
2022-07-28T05:28:25.163Z,5.30
2022-07-28T05:30:54.082Z,5.30
2022-07-28T05:33:22.811Z,5.27
2022-07-28T05:35:55.157Z,5.20
2022-07-28T05:38:23.352Z,5.23
2022-07-28T05:40:51.863Z,5.20
2022-07-28T05:43:21.345Z,5.23
2022-07-28T05:45:51.301Z,5.20
2022-07-28T05:48:20.452Z,5.27
2022-07-28T05:50:50.279Z,5.30
2022-07-28T05:53:19.414Z,5.30
2022-07-28T05:55:59.671Z,5.23
2022-07-28T05:58:30.541Z,5.30
2022-07-28T06:01:03.251Z,5.23
2022-07-28T06:03:38.447Z,5.27
2022-07-28T06:06:16.051Z,5.27
2022-07-28T06:08:47.024Z,5.23
2022-07-28T06:11:18.051Z,5.30
2022-07-28T06:13:52.285Z,5.30
2022-07-28T06:16:23.650Z,5.30
2022-07-28T06:18:52.605Z,5.27
2022-07-28T06:21:24.198Z,5.27
2022-07-28T06:23:52.439Z,5.30
2022-07-28T06:26:23.502Z,5.30
2022-07-28T06:28:52.159Z,5.80
2022-07-28T06:31:21.629Z,5.30
2022-07-28T06:33:49.768Z,5.23
2022-07-28T06:36:17.904Z,5.23
2022-07-28T06:38:46.010Z,5.27
2022-07-28T06:41:14.299Z,5.27
2022-07-28T06:43:42.438Z,5.30
2022-07-28T06:46:10.518Z,5.30
2022-07-28T06:48:41.739Z,5.27
2022-07-28T06:51:09.968Z,5.30
2022-07-28T06:53:38.143Z,5.30
2022-07-28T06:56:06.950Z,5.27
2022-07-28T06:58:35.707Z,5.30
2022-07-28T07:01:07.796Z,5.30
2022-07-28T07:03:36.251Z,5.30
2022-07-28T07:06:05.932Z,5.30
2022-07-28T07:08:34.694Z,5.30
2022-07-28T07:11:03.129Z,5.30
2022-07-28T07:13:32.204Z,5.27
2022-07-28T07:16:00.395Z,5.30
2022-07-28T07:18:28.661Z,5.30
2022-07-28T07:20:58.748Z,5.30
2022-07-28T07:23:28.175Z,5.30
2022-07-28T07:25:56.489Z,5.27
2022-07-28T07:28:24.625Z,5.27
2022-07-28T07:30:52.802Z,5.23
2022-07-28T07:33:20.888Z,5.30
2022-07-28T07:35:49.077Z,5.23
2022-07-28T07:38:17.115Z,5.27
2022-07-28T07:40:46.819Z,5.30
2022-07-28T07:43:14.891Z,5.30
2022-07-28T07:45:43.011Z,5.30
2022-07-28T07:48:11.136Z,5.23
2022-07-28T07:50:39.500Z,5.30
2022-07-28T07:53:07.769Z,5.50
2022-07-28T07:55:37.345Z,5.27
2022-07-28T07:58:07.774Z,6.50
2022-07-28T08:00:36.009Z,5.30
2022-07-28T08:03:04.185Z,5.33
2022-07-28T08:05:39.887Z,5.27
2022-07-28T08:08:08.242Z,5.30
2022-07-28T08:10:38.418Z,5.30
2022-07-28T08:13:09.034Z,7.83
2022-07-28T08:15:37.172Z,5.40
2022-07-28T08:18:05.477Z,5.30
2022-07-28T08:20:33.503Z,5.30
2022-07-28T08:23:01.676Z,5.30
2022-07-28T08:25:29.757Z,5.33
2022-07-28T08:27:57.937Z,5.23
2022-07-28T08:30:32.165Z,5.27
2022-07-28T08:33:02.793Z,5.23
2022-07-28T08:35:34.229Z,5.30
2022-07-28T08:38:04.613Z,5.30
2022-07-28T08:40:33.335Z,5.50
2022-07-28T08:43:14.350Z,5.40
2022-07-28T08:45:48.324Z,6.30
2022-07-28T08:48:19.208Z,5.37
2022-07-28T08:50:50.745Z,5.30
2022-07-28T08:53:21.756Z,5.30
2022-07-28T08:55:50.809Z,5.27
2022-07-28T08:58:19.271Z,12.20
2022-07-28T09:00:49.689Z,5.60
2022-07-28T09:03:18.857Z,5.27
2022-07-28T09:05:47.515Z,6.47
2022-07-28T09:08:19.430Z,5.30
2022-07-28T09:10:47.776Z,5.27
2022-07-28T09:13:16.679Z,5.23
2022-07-28T09:15:46.347Z,5.40
2022-07-28T09:18:18.490Z,5.20
2022-07-28T09:20:47.022Z,5.23
2022-07-28T09:23:42.791Z,5.20
2022-07-28T09:26:12.009Z,5.23
2022-07-28T09:28:53.725Z,5.17
2022-07-28T09:31:24.462Z,5.10
2022-07-28T09:34:01.278Z,5.20
2022-07-28T09:36:31.145Z,5.27
2022-07-28T09:38:59.459Z,5.20
2022-07-28T09:41:27.540Z,5.20
2022-07-28T09:43:56.053Z,5.60
2022-07-28T09:46:26.571Z,5.10
2022-07-28T09:49:01.321Z,5.10
2022-07-28T09:51:31.800Z,5.13
2022-07-28T09:54:11.085Z,7.00
2022-07-28T09:56:41.515Z,5.07
2022-07-28T09:59:09.904Z,5.20
2022-07-28T10:01:54.667Z,5.13
2022-07-28T10:04:36.326Z,6.03
2022-07-28T10:07:09.692Z,5.20
2022-07-28T10:09:39.570Z,5.30
2022-07-28T10:12:24.691Z,11.00
2022-07-28T10:14:55.444Z,5.30
2022-07-28T10:17:31.364Z,5.50
2022-07-28T10:20:02.672Z,5.30
2022-07-28T10:22:39.534Z,5.30
2022-07-28T10:25:13.120Z,5.33
2022-07-28T10:27:43.580Z,5.27
2022-07-28T10:30:14.141Z,12.90
2022-07-28T10:32:45.214Z,5.37
2022-07-28T10:35:17.425Z,5.30
2022-07-28T10:37:53.118Z,5.23
2022-07-28T10:40:27.493Z,5.00
2022-07-28T10:42:57.337Z,7.30
2022-07-28T10:45:41.980Z,5.10
2022-07-28T10:48:15.407Z,5.27
2022-07-28T10:50:45.953Z,5.27
2022-07-28T10:53:30.894Z,5.10
2022-07-28T10:56:06.030Z,5.63
2022-07-28T10:58:47.186Z,6.80
2022-07-28T11:01:52.122Z,5.30
2022-07-28T11:04:55.273Z,5.00
2022-07-28T11:07:24.747Z,6.07
2022-07-28T11:09:54.049Z,5.07
2022-07-28T11:12:46.498Z,5.07
2022-07-28T11:15:35.745Z,5.03
2022-07-28T11:18:10.213Z,5.10
2022-07-28T11:21:07.862Z,5.17
2022-07-28T11:23:46.441Z,5.00
2022-07-28T11:26:41.738Z,5.07
2022-07-28T11:29:21.567Z,5.10
2022-07-28T11:32:04.727Z,4.97
2022-07-28T11:35:14.363Z,4.80
2022-07-28T11:38:22.531Z,4.77
2022-07-28T11:40:53.931Z,4.80
2022-07-28T11:43:43.112Z,4.80
2022-07-28T11:46:33.327Z,4.70
2022-07-28T11:49:26.221Z,4.50
2022-07-28T11:52:20.841Z,4.33
2022-07-28T11:54:58.891Z,4.33
2022-07-28T11:57:30.030Z,4.40
2022-07-28T12:00:02.183Z,4.43
2022-07-28T12:02:33.650Z,4.60
2022-07-28T12:05:14.947Z,4.50
2022-07-28T12:07:49.736Z,4.37
2022-07-28T12:10:53.361Z,4.13
2022-07-28T12:13:28.851Z,3.87
2022-07-28T12:15:57.367Z,3.53
2022-07-28T12:18:25.640Z,3.30
2022-07-28T12:20:54.656Z,3.22
2022-07-28T12:23:39.011Z,2.80
2022-07-28T12:26:31.221Z,2.70
2022-07-28T12:29:01.686Z,2.67
2022-07-28T12:31:33.780Z,2.83
2022-07-28T12:34:02.919Z,3.03
2022-07-28T12:36:31.272Z,3.35
2022-07-28T12:39:00.401Z,3.70
2022-07-28T12:41:33.634Z,3.70
2022-07-28T12:44:06.058Z,3.70
2022-07-28T12:46:34.604Z,3.70
2022-07-28T12:49:03.273Z,4.30
2022-07-28T12:51:33.610Z,4.10
2022-07-28T12:54:02.196Z,4.13
2022-07-28T12:56:30.859Z,4.00
2022-07-28T12:59:07.821Z,4.00
2022-07-28T13:01:51.200Z,3.90
2022-07-28T13:04:41.749Z,3.70
2022-07-28T13:07:13.844Z,3.30
2022-07-28T13:10:00.316Z,3.03
2022-07-28T13:12:31.427Z,2.83
2022-07-28T13:15:04.526Z,3.00
2022-07-28T13:17:55.076Z,2.95
2022-07-28T13:20:24.249Z,2.85
2022-07-28T13:22:53.418Z,3.00
2022-07-28T13:25:22.284Z,3.20
2022-07-28T13:27:54.535Z,3.03
2022-07-28T13:30:25.201Z,2.65
2022-07-28T13:32:54.755Z,2.35
2022-07-28T13:35:22.965Z,2.40
2022-07-28T13:37:51.214Z,2.53
2022-07-28T13:40:19.269Z,3.10
2022-07-28T13:42:53.357Z,3.22
2022-07-28T13:45:30.323Z,3.60
2022-07-28T13:47:58.514Z,3.70
2022-07-28T13:50:27.185Z,3.45
2022-07-28T13:52:55.335Z,3.10
2022-07-28T13:55:23.650Z,2.80
2022-07-28T13:57:55.266Z,2.70
2022-07-28T14:00:26.520Z,2.78
2022-07-28T14:02:54.972Z,3.03
2022-07-28T14:05:23.217Z,2.70
2022-07-28T14:07:51.563Z,2.70
2022-07-28T14:10:19.974Z,2.60
2022-07-28T14:12:55.138Z,2.65
2022-07-28T14:15:23.451Z,2.70
2022-07-28T14:17:52.936Z,3.00
2022-07-28T14:20:21.081Z,3.10
2022-07-28T14:22:49.109Z,3.25
2022-07-28T14:25:19.754Z,3.13
2022-07-28T14:27:50.681Z,3.08
2022-07-28T14:30:20.340Z,2.83
2022-07-28T14:32:48.922Z,2.80
2022-07-28T14:35:18.517Z,2.60
2022-07-28T14:38:35.048Z,2.40
2022-07-28T14:40:39.265Z,2.30
2022-07-28T14:43:09.338Z,2.20
2022-07-28T14:46:00.423Z,2.10
2022-07-28T14:48:26.503Z,2.10
2022-07-28T14:50:57.025Z,2.05
2022-07-28T14:53:28.190Z,2.00
2022-07-28T14:55:56.860Z,1.95
2022-07-28T14:58:25.652Z,2.05
2022-07-28T15:00:54.194Z,2.10
2022-07-28T15:03:22.284Z,2.13
2022-07-28T15:05:50.425Z,2.15
2022-07-28T15:08:19.889Z,2.10
2022-07-28T15:10:53.405Z,2.20
2022-07-28T15:13:21.776Z,2.20
2022-07-28T15:15:50.017Z,2.20
2022-07-28T15:18:18.060Z,2.20
2022-07-28T15:20:46.228Z,2.20
2022-07-28T15:23:14.336Z,2.20
2022-07-28T15:25:46.393Z,2.20
2022-07-28T15:28:17.876Z,2.20
2022-07-28T15:30:51.438Z,2.50
2022-07-28T15:33:20.628Z,2.72
2022-07-28T15:35:58.563Z,2.90
2022-07-28T15:38:31.519Z,3.10
2022-07-28T15:41:01.446Z,3.10
2022-07-28T15:43:30.175Z,3.05
2022-07-28T15:45:58.288Z,2.90
2022-07-28T15:48:26.423Z,2.80
2022-07-28T15:50:54.558Z,2.70
2022-07-28T15:53:22.680Z,2.65
2022-07-28T15:55:51.744Z,2.60
2022-07-28T15:58:22.855Z,2.53
2022-07-28T16:00:51.766Z,2.58
2022-07-28T16:03:20.351Z,2.40
2022-07-28T16:05:50.283Z,2.40
2022-07-28T16:08:22.602Z,2.38
2022-07-28T16:10:54.202Z,2.38
2022-07-28T16:13:35.923Z,2.33
2022-07-28T16:16:08.407Z,2.38
2022-07-28T16:18:37.628Z,2.40
2022-07-28T16:21:06.772Z,2.40
2022-07-28T16:23:36.217Z,2.40
2022-07-28T16:26:07.477Z,2.58
2022-07-28T16:28:37.459Z,2.58
2022-07-28T16:31:05.730Z,2.53
2022-07-28T16:33:34.211Z,2.60
2022-07-28T16:36:02.964Z,2.60
2022-07-28T16:38:31.287Z,2.60
2022-07-28T16:40:59.420Z,2.60
2022-07-28T16:43:27.545Z,2.65
2022-07-28T16:45:57.342Z,2.70
2022-07-28T16:48:25.586Z,2.70
2022-07-28T16:50:53.870Z,2.83
2022-07-28T16:53:21.959Z,2.85
2022-07-28T16:55:50.281Z,2.95
2022-07-28T16:58:19.929Z,3.00
2022-07-28T17:00:48.037Z,3.10
2022-07-28T17:03:17.972Z,3.20
2022-07-28T17:05:46.184Z,3.20
2022-07-28T17:08:14.749Z,3.20
2022-07-28T17:10:42.924Z,3.30
2022-07-28T17:13:12.011Z,3.33
2022-07-28T17:15:41.428Z,3.30
2022-07-28T17:18:09.697Z,3.40
2022-07-28T17:20:42.729Z,3.45
2022-07-28T17:23:11.423Z,3.60
2022-07-28T17:28:28.481Z,3.90
2022-07-28T17:30:56.906Z,3.93
2022-07-28T17:33:25.773Z,4.00
2022-07-28T17:35:56.095Z,4.13
2022-07-28T17:38:30.958Z,4.20
2022-07-28T17:41:03.774Z,4.37
2022-07-28T17:43:32.716Z,4.40
2022-07-28T17:46:01.206Z,4.40
2022-07-28T17:48:31.123Z,4.40
2022-07-28T17:51:00.750Z,4.40
2022-07-28T17:53:28.882Z,4.47
2022-07-28T17:56:01.197Z,4.50
2022-07-28T17:58:32.270Z,4.70
2022-07-28T18:01:10.179Z,4.67
2022-07-28T18:03:59.303Z,4.80
2022-07-28T18:06:33.821Z,4.93
2022-07-28T18:09:06.057Z,5.07
2022-07-28T18:11:36.083Z,5.10
2022-07-28T18:14:23.421Z,5.30
2022-07-28T18:16:51.472Z,5.30
2022-07-28T18:19:19.511Z,5.40
2022-07-28T18:21:48.999Z,5.40
2022-07-28T18:24:18.019Z,5.47
2022-07-28T18:26:46.422Z,5.47
2022-07-28T18:29:14.538Z,5.50
2022-07-28T18:31:46.430Z,5.60
2022-07-28T18:34:15.359Z,5.60
2022-07-28T18:36:43.868Z,5.67
2022-07-28T18:39:13.340Z,5.70
2022-07-28T18:41:46.520Z,5.60
2022-07-28T18:44:16.955Z,5.67
2022-07-28T18:46:45.826Z,5.70
2022-07-28T18:49:14.228Z,5.70
2022-07-28T18:51:45.162Z,5.67
2022-07-28T18:54:19.939Z,5.70
2022-07-28T18:56:50.132Z,5.67
2022-07-28T18:59:18.514Z,5.70
2022-07-28T19:01:46.636Z,5.70
2022-07-28T19:04:15.454Z,5.63
2022-07-28T19:06:43.851Z,5.70
2022-07-28T19:09:11.927Z,5.70
2022-07-28T19:11:46.001Z,5.63
2022-07-28T19:14:15.335Z,5.63
2022-07-28T19:16:44.394Z,5.70
2022-07-28T19:19:12.903Z,5.70
2022-07-28T19:21:43.471Z,5.63
2022-07-28T19:24:12.803Z,5.60
2022-07-28T19:26:44.287Z,5.63
2022-07-28T19:29:12.956Z,5.60
2022-07-28T19:31:41.444Z,5.60
2022-07-28T19:34:10.380Z,5.63
2022-07-28T19:36:41.350Z,5.53
2022-07-28T19:39:09.662Z,5.60
2022-07-28T19:41:37.772Z,5.63
2022-07-28T19:44:07.447Z,5.63
2022-07-28T19:46:35.667Z,5.60
2022-07-28T19:49:07.632Z,5.60
2022-07-28T19:51:35.951Z,5.60
2022-07-28T19:54:05.160Z,5.70
2022-07-28T19:56:33.215Z,5.63
2022-07-28T19:59:02.369Z,5.60
2022-07-28T20:01:32.057Z,5.60
2022-07-28T20:04:04.939Z,5.60
2022-07-28T20:06:33.717Z,5.60
2022-07-28T20:09:03.441Z,5.60
2022-07-28T20:11:32.955Z,5.63
2022-07-28T20:14:01.974Z,5.60
2022-07-28T20:16:31.587Z,5.53
2022-07-28T20:18:59.782Z,5.53
2022-07-28T20:21:27.953Z,5.57
2022-07-28T20:23:57.721Z,5.57
2022-07-28T20:26:26.931Z,5.60
2022-07-28T20:28:58.292Z,5.60
2022-07-28T20:31:26.517Z,5.53
2022-07-28T20:33:56.440Z,5.53
2022-07-28T20:36:29.461Z,5.57
2022-07-28T20:38:58.224Z,5.50
2022-07-28T20:41:26.592Z,5.47
2022-07-28T20:44:26.101Z,5.57
2022-07-28T20:46:43.203Z,5.53
2022-07-28T20:49:12.736Z,5.57
2022-07-28T20:51:45.183Z,5.60
2022-07-28T20:54:19.058Z,5.57
2022-07-28T20:56:47.184Z,5.57
2022-07-28T20:59:15.542Z,5.50
